createdAt,value
2022-10-31T00:01:39.327Z,96.67
2022-10-31T00:04:07.391Z,96.87
2022-10-31T00:06:34.909Z,98.16
2022-10-31T00:09:04.353Z,98.71
2022-10-31T00:11:32.101Z,98.13
2022-10-31T00:14:00.329Z,97.27
2022-10-31T00:16:28.939Z,97.01
2022-10-31T00:18:58.856Z,96.67
2022-10-31T00:21:26.821Z,96.49
2022-10-31T00:23:54.263Z,96.32
2022-10-31T00:26:22.000Z,96.47
2022-10-31T00:28:50.122Z,96.63
2022-10-31T00:31:17.853Z,96.49
2022-10-31T00:33:45.826Z,96.33
2022-10-31T00:36:15.398Z,96.35
2022-10-31T00:38:43.554Z,96.30
2022-10-31T00:41:12.547Z,96.69
2022-10-31T00:43:42.314Z,96.39
2022-10-31T00:46:10.936Z,96.26
2022-10-31T00:48:38.662Z,96.24
2022-10-31T00:51:06.355Z,96.27
2022-10-31T00:53:33.854Z,96.25
2022-10-31T00:56:02.077Z,96.09
2022-10-31T00:58:29.556Z,96.15
2022-10-31T01:00:57.095Z,96.10
2022-10-31T01:03:30.468Z,96.06
2022-10-31T01:06:09.144Z,96.06
2022-10-31T01:08:37.969Z,96.01
2022-10-31T01:11:17.847Z,95.96
2022-10-31T01:13:45.965Z,96.26
2022-10-31T01:16:16.133Z,96.13
2022-10-31T01:18:43.619Z,96.25
2022-10-31T01:21:17.329Z,96.23
2022-10-31T01:23:45.010Z,96.30
2022-10-31T01:26:16.333Z,96.37
2022-10-31T01:28:51.605Z,96.33
2022-10-31T01:31:20.498Z,96.44
2022-10-31T01:33:48.213Z,96.56
2022-10-31T01:36:38.967Z,96.69
2022-10-31T01:39:09.626Z,96.94
2022-10-31T01:41:41.192Z,96.65
2022-10-31T01:44:15.041Z,96.56
2022-10-31T01:46:53.751Z,96.46
2022-10-31T01:49:26.091Z,96.44
2022-10-31T01:52:01.977Z,96.50
2022-10-31T01:54:33.288Z,96.55
2022-10-31T01:57:01.066Z,96.58
2022-10-31T01:59:30.516Z,96.47
2022-10-31T02:01:58.595Z,96.44
2022-10-31T02:04:28.000Z,96.46
2022-10-31T02:06:59.480Z,96.61
2022-10-31T02:09:27.576Z,97.00
2022-10-31T02:11:57.598Z,96.94
2022-10-31T02:14:26.971Z,97.09
2022-10-31T02:16:55.322Z,96.92
2022-10-31T02:19:41.756Z,97.76
2022-10-31T02:22:20.958Z,97.75
2022-10-31T02:24:57.422Z,98.61
2022-10-31T02:27:46.781Z,98.62
2022-10-31T02:30:17.509Z,97.80
2022-10-31T02:33:44.102Z,97.51
2022-10-31T02:36:35.922Z,97.36
2022-10-31T02:39:14.609Z,97.22
2022-10-31T02:42:07.014Z,97.01
2022-10-31T02:44:50.132Z,97.17
2022-10-31T02:47:20.204Z,96.91
2022-10-31T02:49:58.675Z,96.82
2022-10-31T02:52:28.630Z,96.79
2022-10-31T02:54:59.904Z,96.82
2022-10-31T02:57:32.799Z,96.86
2022-10-31T03:00:06.965Z,96.90
2022-10-31T03:02:52.887Z,96.91
2022-10-31T03:05:38.652Z,96.99
2022-10-31T03:08:11.956Z,96.88
2022-10-31T03:10:48.090Z,96.97
2022-10-31T03:13:30.791Z,96.90
2022-10-31T03:16:09.336Z,97.05
2022-10-31T03:18:51.804Z,97.75
2022-10-31T03:21:48.704Z,97.78
2022-10-31T03:24:17.419Z,97.70
2022-10-31T03:26:51.087Z,97.52
2022-10-31T03:29:22.061Z,97.45
2022-10-31T03:32:18.411Z,97.45
2022-10-31T03:34:47.295Z,97.26
2022-10-31T03:37:19.242Z,97.21
2022-10-31T03:39:47.953Z,97.09
2022-10-31T03:42:27.120Z,96.93
2022-10-31T03:44:58.848Z,96.96
2022-10-31T03:47:28.477Z,96.97
2022-10-31T03:49:56.541Z,97.27
2022-10-31T03:52:30.989Z,97.02
2022-10-31T03:55:07.503Z,96.82
2022-10-31T03:57:40.585Z,96.87
2022-10-31T04:00:13.903Z,97.37
2022-10-31T04:03:00.207Z,97.51
2022-10-31T04:05:29.020Z,97.43
2022-10-31T04:08:01.591Z,98.52
2022-10-31T04:10:32.929Z,98.41
2022-10-31T04:13:12.833Z,98.92
2022-10-31T04:15:42.449Z,98.06
2022-10-31T04:18:10.091Z,97.83
2022-10-31T04:20:41.019Z,97.64
2022-10-31T04:23:25.376Z,97.34
2022-10-31T04:25:53.303Z,97.77
2022-10-31T04:28:21.236Z,97.41
2022-10-31T04:30:48.804Z,97.25
2022-10-31T04:33:16.518Z,97.24
2022-10-31T04:35:46.033Z,97.28
2022-10-31T04:38:13.574Z,97.50
2022-10-31T04:40:41.325Z,97.37
2022-10-31T04:43:10.178Z,97.22
2022-10-31T04:45:40.869Z,97.08
2022-10-31T04:48:09.618Z,97.02
2022-10-31T04:50:37.469Z,96.95
2022-10-31T04:53:05.011Z,96.92
2022-10-31T04:55:32.829Z,96.82
2022-10-31T04:58:01.986Z,96.75
2022-10-31T05:00:29.741Z,96.65
2022-10-31T05:02:58.838Z,96.62
2022-10-31T05:05:29.827Z,96.59
2022-10-31T05:07:57.887Z,96.60
2022-10-31T05:10:28.550Z,96.51
2022-10-31T05:13:00.768Z,96.54
2022-10-31T05:15:30.309Z,96.44
2022-10-31T05:18:03.450Z,96.38
2022-10-31T05:20:34.367Z,96.43
2022-10-31T05:23:03.487Z,96.49
2022-10-31T05:25:31.430Z,96.55
2022-10-31T05:27:59.726Z,96.64
2022-10-31T05:30:30.390Z,96.70
2022-10-31T05:32:59.098Z,96.73
2022-10-31T05:35:33.238Z,96.93
2022-10-31T05:38:01.780Z,96.96
2022-10-31T05:40:29.586Z,96.98
2022-10-31T05:42:59.728Z,97.15
2022-10-31T05:45:27.645Z,97.18
2022-10-31T05:48:01.585Z,97.22
2022-10-31T05:50:32.533Z,97.16
2022-10-31T05:53:02.626Z,97.21
2022-10-31T05:55:30.660Z,97.62
2022-10-31T05:57:59.254Z,97.85
2022-10-31T06:00:28.013Z,97.33
2022-10-31T06:03:01.241Z,97.19
2022-10-31T06:05:30.122Z,97.07
2022-10-31T06:07:58.330Z,97.05
2022-10-31T06:10:26.626Z,97.05
2022-10-31T06:12:54.647Z,96.99
2022-10-31T06:15:24.492Z,97.47
2022-10-31T06:18:05.356Z,97.31
2022-10-31T06:20:34.884Z,97.61
2022-10-31T06:23:03.216Z,97.32
2022-10-31T06:25:31.931Z,97.19
2022-10-31T06:27:59.581Z,97.17
2022-10-31T06:30:31.806Z,97.25
2022-10-31T06:33:06.316Z,97.33
2022-10-31T06:35:35.214Z,97.18
2022-10-31T06:38:03.414Z,97.26
2022-10-31T06:40:31.561Z,97.82
2022-10-31T06:43:01.596Z,97.57
2022-10-31T06:45:30.138Z,97.47
2022-10-31T06:50:54.682Z,97.52
2022-10-31T06:53:24.642Z,97.46
2022-10-31T06:55:52.648Z,97.96
2022-10-31T06:58:20.469Z,97.64
2022-10-31T07:00:48.749Z,99.06
2022-10-31T07:03:17.758Z,99.49
2022-10-31T07:05:45.650Z,100.00
2022-10-31T07:08:14.662Z,99.85
2022-10-31T07:10:43.941Z,100.00
2022-10-31T07:13:15.382Z,99.93
2022-10-31T07:15:44.868Z,100.00
2022-10-31T07:18:13.502Z,99.63
2022-10-31T07:20:41.277Z,99.36
2022-10-31T07:23:11.172Z,99.55
2022-10-31T07:25:39.687Z,99.50
2022-10-31T07:28:07.842Z,99.28
2022-10-31T07:30:35.625Z,100.00
2022-10-31T07:33:03.217Z,100.00
2022-10-31T07:35:33.433Z,99.98
2022-10-31T07:38:09.630Z,99.79
2022-10-31T07:40:37.213Z,99.85
2022-10-31T07:43:07.557Z,99.36
2022-10-31T07:45:40.646Z,98.60
2022-10-31T07:48:10.756Z,98.34
2022-10-31T07:50:45.662Z,98.09
2022-10-31T07:53:17.870Z,98.18
2022-10-31T07:55:45.858Z,98.43
2022-10-31T07:58:16.060Z,98.13
2022-10-31T08:00:45.733Z,97.67
2022-10-31T08:03:16.757Z,97.46
2022-10-31T08:05:48.218Z,97.10
2022-10-31T08:08:17.715Z,97.13
2022-10-31T08:10:45.428Z,98.54
2022-10-31T08:13:14.558Z,98.19
2022-10-31T08:15:43.170Z,98.85
2022-10-31T08:18:14.057Z,98.93
2022-10-31T08:20:45.453Z,98.29
2022-10-31T08:23:14.471Z,98.21
2022-10-31T08:25:43.318Z,97.77
2022-10-31T08:28:12.672Z,97.98
2022-10-31T08:30:42.253Z,97.91
2022-10-31T08:33:17.995Z,97.29
2022-10-31T08:35:52.765Z,96.84
2022-10-31T08:38:23.034Z,96.00
2022-10-31T08:40:50.975Z,96.32
2022-10-31T08:43:19.459Z,96.10
2022-10-31T08:45:50.171Z,95.08
2022-10-31T08:48:19.328Z,94.62
2022-10-31T08:50:47.839Z,94.56
2022-10-31T08:53:20.170Z,94.35
2022-10-31T08:55:49.312Z,94.46
2022-10-31T08:58:20.110Z,94.82
2022-10-31T09:00:50.594Z,97.05
2022-10-31T09:03:23.784Z,97.27
2022-10-31T09:05:55.267Z,97.13
2022-10-31T09:08:23.159Z,95.45
2022-10-31T09:10:51.832Z,94.57
2022-10-31T09:13:21.452Z,94.62
2022-10-31T09:15:50.548Z,94.68
2022-10-31T09:18:22.425Z,94.01
2022-10-31T09:20:50.927Z,96.91
2022-10-31T09:23:21.553Z,96.73
2022-10-31T09:25:51.161Z,95.35
2022-10-31T09:28:25.273Z,94.69
2022-10-31T09:30:54.197Z,94.46
2022-10-31T09:33:22.621Z,95.41
2022-10-31T09:35:52.274Z,95.62
2022-10-31T09:38:21.893Z,95.90
2022-10-31T09:41:16.211Z,95.02
2022-10-31T09:43:59.666Z,94.78
2022-10-31T09:46:36.437Z,94.49
2022-10-31T09:49:25.894Z,94.58
2022-10-31T09:52:04.910Z,95.54
2022-10-31T09:54:45.113Z,94.95
2022-10-31T09:57:16.057Z,94.41
2022-10-31T09:59:45.652Z,95.21
2022-10-31T10:02:22.897Z,94.86
2022-10-31T10:05:02.219Z,94.58
2022-10-31T10:07:33.373Z,95.25
2022-10-31T10:10:18.402Z,96.09
2022-10-31T10:13:10.967Z,95.60
2022-10-31T10:16:20.402Z,95.01
2022-10-31T10:19:02.885Z,93.78
2022-10-31T10:21:51.865Z,93.12
2022-10-31T10:24:34.943Z,92.99
2022-10-31T10:27:27.543Z,92.37
2022-10-31T10:30:07.422Z,91.76
2022-10-31T10:32:52.182Z,92.08
2022-10-31T10:35:35.885Z,93.59
2022-10-31T10:38:10.694Z,92.61
2022-10-31T10:40:38.336Z,93.45
2022-10-31T10:43:24.150Z,92.74
2022-10-31T10:46:16.200Z,92.45
2022-10-31T10:49:05.821Z,92.92
2022-10-31T10:52:12.804Z,93.08
2022-10-31T10:54:55.580Z,93.10
2022-10-31T10:57:30.074Z,93.50
2022-10-31T10:59:59.036Z,92.95
2022-10-31T11:02:27.809Z,93.42
2022-10-31T11:04:57.920Z,93.16
2022-10-31T11:07:25.651Z,93.48
2022-10-31T11:10:04.449Z,94.26
2022-10-31T11:12:34.467Z,92.82
2022-10-31T11:15:08.588Z,93.98
2022-10-31T11:17:40.793Z,92.19
2022-10-31T11:20:17.882Z,93.38
2022-10-31T11:22:48.635Z,93.66
2022-10-31T11:25:26.911Z,93.23
2022-10-31T11:28:01.862Z,93.19
2022-10-31T11:30:30.101Z,92.72
2022-10-31T11:32:58.268Z,92.33
2022-10-31T11:35:26.719Z,91.51
2022-10-31T11:37:56.155Z,90.96
2022-10-31T11:40:27.828Z,90.92
2022-10-31T11:42:58.303Z,91.86
2022-10-31T11:45:34.887Z,90.59
2022-10-31T11:48:17.348Z,92.95
2022-10-31T11:50:50.958Z,91.61
2022-10-31T11:53:20.626Z,90.68
2022-10-31T11:55:48.855Z,90.15
2022-10-31T11:58:25.053Z,90.01
2022-10-31T12:00:55.075Z,89.50
2022-10-31T12:03:41.614Z,89.05
2022-10-31T12:06:22.209Z,90.59
2022-10-31T12:08:50.279Z,89.19
2022-10-31T12:11:31.102Z,88.55
2022-10-31T12:14:18.910Z,88.12
2022-10-31T12:16:57.607Z,87.82
2022-10-31T12:19:37.606Z,88.08
2022-10-31T12:22:15.338Z,88.48
2022-10-31T12:25:00.410Z,88.08
2022-10-31T12:27:37.314Z,88.12
2022-10-31T12:30:21.559Z,88.51
2022-10-31T12:33:20.040Z,88.09
2022-10-31T12:36:21.618Z,87.94
2022-10-31T12:39:03.071Z,88.79
2022-10-31T12:41:52.678Z,88.91
2022-10-31T12:44:38.816Z,88.56
2022-10-31T12:47:21.519Z,88.18
2022-10-31T12:49:57.953Z,88.98
2022-10-31T12:52:37.614Z,88.35
2022-10-31T12:55:26.119Z,88.44
2022-10-31T12:57:58.387Z,88.85
2022-10-31T13:00:30.387Z,89.82
2022-10-31T13:03:05.028Z,89.14
2022-10-31T13:05:42.172Z,88.72
2022-10-31T13:08:20.917Z,88.20
2022-10-31T13:11:06.429Z,88.40
2022-10-31T13:13:39.125Z,87.96
2022-10-31T13:16:22.016Z,87.95
2022-10-31T13:18:55.687Z,87.73
2022-10-31T13:21:38.787Z,87.58
2022-10-31T13:24:17.262Z,87.57
2022-10-31T13:26:55.808Z,87.44
2022-10-31T13:29:44.342Z,87.28
2022-10-31T13:32:11.908Z,87.19
2022-10-31T13:34:56.153Z,86.97
2022-10-31T13:37:35.812Z,87.25
2022-10-31T13:40:03.756Z,87.13
2022-10-31T13:42:41.793Z,87.03
2022-10-31T13:45:18.721Z,86.84
2022-10-31T13:48:01.214Z,87.07
2022-10-31T13:50:32.534Z,87.26
2022-10-31T13:53:18.351Z,87.29
2022-10-31T13:55:49.249Z,89.02
2022-10-31T13:58:30.839Z,88.77
2022-10-31T14:01:16.112Z,88.17
2022-10-31T14:04:06.080Z,87.86
2022-10-31T14:06:43.973Z,89.00
2022-10-31T14:09:24.736Z,88.42
2022-10-31T14:11:53.106Z,88.14
2022-10-31T14:14:22.208Z,88.14
2022-10-31T14:16:56.985Z,88.50
2022-10-31T14:19:25.751Z,88.41
2022-10-31T14:21:53.298Z,88.33
2022-10-31T14:24:23.714Z,88.41
2022-10-31T14:27:03.468Z,88.24
2022-10-31T14:29:32.840Z,88.19
2022-10-31T14:32:13.766Z,88.12
2022-10-31T14:34:43.537Z,88.10
2022-10-31T14:37:40.787Z,88.12
2022-10-31T14:41:02.717Z,87.99
2022-10-31T14:44:06.289Z,87.85
2022-10-31T14:46:58.081Z,87.83
2022-10-31T14:49:44.245Z,87.52
2022-10-31T14:52:14.213Z,87.77
2022-10-31T14:54:46.520Z,87.83
2022-10-31T14:57:18.088Z,87.99
2022-10-31T14:59:50.375Z,89.34
2022-10-31T15:02:24.246Z,89.09
2022-10-31T15:04:53.979Z,90.67
2022-10-31T15:07:25.100Z,90.13
2022-10-31T15:10:01.516Z,89.53
2022-10-31T15:12:31.610Z,89.34
2022-10-31T15:15:12.427Z,89.06
2022-10-31T15:17:45.186Z,88.87
2022-10-31T15:20:13.601Z,88.76
2022-10-31T15:22:41.160Z,89.05
2022-10-31T15:25:18.487Z,88.87
2022-10-31T15:27:47.617Z,88.90
2022-10-31T15:30:24.909Z,89.15
2022-10-31T15:33:01.117Z,89.08
2022-10-31T15:35:31.885Z,89.06
2022-10-31T15:38:01.764Z,89.14
2022-10-31T15:40:29.674Z,89.20
2022-10-31T15:43:03.321Z,89.18
2022-10-31T15:45:31.603Z,89.38
2022-10-31T15:48:02.536Z,89.38
2022-10-31T15:50:38.507Z,89.39
2022-10-31T15:53:07.781Z,89.12
2022-10-31T15:55:39.416Z,89.68
2022-10-31T15:58:14.766Z,89.19
2022-10-31T16:00:42.642Z,89.09
2022-10-31T16:03:13.316Z,89.05
2022-10-31T16:05:45.448Z,89.28
2022-10-31T16:08:31.536Z,89.24
2022-10-31T16:11:08.446Z,89.20
2022-10-31T16:13:39.419Z,89.24
2022-10-31T16:16:34.079Z,89.25
2022-10-31T16:19:04.916Z,89.27
2022-10-31T16:21:35.214Z,89.46
2022-10-31T16:24:16.606Z,89.29
2022-10-31T16:26:52.591Z,89.13
2022-10-31T16:29:49.694Z,89.18
2022-10-31T16:32:31.582Z,89.24
2022-10-31T16:35:29.667Z,89.29
2022-10-31T16:37:57.113Z,89.41
2022-10-31T16:40:25.277Z,89.62
2022-10-31T16:42:53.003Z,89.66
2022-10-31T16:45:28.100Z,89.66
2022-10-31T16:48:03.776Z,89.66
2022-10-31T16:50:31.578Z,89.76
2022-10-31T16:53:15.171Z,89.81
2022-10-31T16:55:45.887Z,89.77
2022-10-31T16:58:20.232Z,90.03
2022-10-31T17:00:47.815Z,89.87
2022-10-31T17:03:15.661Z,90.02
2022-10-31T17:05:51.393Z,90.08
2022-10-31T17:08:19.125Z,90.15
2022-10-31T17:10:48.455Z,90.14
2022-10-31T17:13:21.786Z,90.52
2022-10-31T17:15:52.373Z,90.40
2022-10-31T17:18:24.442Z,90.62
2022-10-31T17:21:00.038Z,90.52
2022-10-31T17:23:28.678Z,90.51
2022-10-31T17:25:57.153Z,90.49
2022-10-31T17:28:26.637Z,90.53
2022-10-31T17:30:55.656Z,90.49
2022-10-31T17:33:23.411Z,90.55
2022-10-31T17:35:51.755Z,90.70
2022-10-31T17:38:19.232Z,90.80
2022-10-31T17:43:15.473Z,90.97
2022-10-31T17:45:43.131Z,90.99
2022-10-31T17:48:13.908Z,91.03
2022-10-31T17:50:41.394Z,91.09
2022-10-31T17:53:09.065Z,91.27
2022-10-31T17:55:37.730Z,91.42
2022-10-31T17:58:05.704Z,91.36
2022-10-31T18:00:33.671Z,91.29
2022-10-31T18:03:03.897Z,91.31
2022-10-31T18:05:32.058Z,91.53
2022-10-31T18:08:03.814Z,91.51
2022-10-31T18:10:32.178Z,91.52
2022-10-31T18:13:00.325Z,91.48
2022-10-31T18:15:28.378Z,91.44
2022-10-31T18:17:56.531Z,91.57
2022-10-31T18:20:24.296Z,91.46
2022-10-31T18:22:51.979Z,91.41
2022-10-31T18:25:19.683Z,91.37
2022-10-31T18:27:47.338Z,91.54
2022-10-31T18:30:15.044Z,91.50
2022-10-31T18:32:42.985Z,91.54
2022-10-31T18:35:10.791Z,91.60
2022-10-31T18:37:38.287Z,91.46
2022-10-31T18:40:06.803Z,91.40
2022-10-31T18:42:35.602Z,91.46
2022-10-31T18:45:17.099Z,91.48
2022-10-31T18:47:51.860Z,91.61
2022-10-31T18:50:19.892Z,91.52
2022-10-31T18:52:47.406Z,91.64
2022-10-31T18:55:15.186Z,91.82
2022-10-31T18:57:42.810Z,91.88
2022-10-31T19:00:10.960Z,91.92
2022-10-31T19:02:39.006Z,91.96
2022-10-31T19:05:06.746Z,91.96
2022-10-31T19:07:34.325Z,92.13
2022-10-31T19:10:02.273Z,92.10
2022-10-31T19:12:32.257Z,91.94
2022-10-31T19:14:59.748Z,92.01
2022-10-31T19:17:27.616Z,92.09
2022-10-31T19:19:55.359Z,92.04
2022-10-31T19:22:23.052Z,92.06
2022-10-31T19:24:51.003Z,92.16
2022-10-31T19:27:18.887Z,92.10
2022-10-31T19:29:46.385Z,92.23
2022-10-31T19:32:14.431Z,92.48
2022-10-31T19:34:41.927Z,92.38
2022-10-31T19:37:09.424Z,92.48
2022-10-31T19:39:42.759Z,92.58
2022-10-31T19:42:12.178Z,92.49
2022-10-31T19:44:40.178Z,92.60
2022-10-31T19:47:07.878Z,92.63
2022-10-31T19:49:36.108Z,92.62
2022-10-31T19:52:04.187Z,92.74
2022-10-31T19:54:32.217Z,92.75
2022-10-31T19:56:59.947Z,92.72
2022-10-31T19:59:28.102Z,92.94
2022-10-31T20:01:55.608Z,92.80
2022-10-31T20:04:23.683Z,93.06
2022-10-31T20:06:51.246Z,93.10
2022-10-31T20:09:19.146Z,93.11
2022-10-31T20:11:47.215Z,93.10
2022-10-31T20:14:17.068Z,93.12
2022-10-31T20:16:45.197Z,93.27
2022-10-31T20:19:13.088Z,93.42
2022-10-31T20:21:41.116Z,93.40
2022-10-31T20:24:09.849Z,93.55
2022-10-31T20:26:39.641Z,93.66
2022-10-31T20:29:07.335Z,93.67
2022-10-31T20:31:36.496Z,93.98
2022-10-31T20:34:04.625Z,94.32
2022-10-31T20:36:32.395Z,94.42
2022-10-31T20:39:00.412Z,94.39
2022-10-31T20:41:28.550Z,94.61
2022-10-31T20:43:56.156Z,94.74
2022-10-31T20:46:26.253Z,94.91
2022-10-31T20:48:54.427Z,94.94
2022-10-31T20:51:25.137Z,94.77
2022-10-31T20:53:54.230Z,95.06
2022-10-31T20:56:26.052Z,95.13
2022-10-31T20:58:57.180Z,95.02
2022-10-31T21:01:30.311Z,94.97
2022-10-31T21:03:59.357Z,95.16
2022-10-31T21:06:28.446Z,94.99
2022-10-31T21:08:56.604Z,95.11
2022-10-31T21:11:26.181Z,94.93
2022-10-31T21:13:54.336Z,94.89
2022-10-31T21:16:31.100Z,94.92
2022-10-31T21:19:00.172Z,94.89
2022-10-31T21:21:32.609Z,94.82
2022-10-31T21:24:03.916Z,95.15
2022-10-31T21:26:34.734Z,94.98
2022-10-31T21:29:04.058Z,95.02
2022-10-31T21:31:31.939Z,95.22
2022-10-31T21:33:59.411Z,95.30
2022-10-31T21:36:27.294Z,95.41
2022-10-31T21:38:55.442Z,95.47
2022-10-31T21:41:23.975Z,95.65
2022-10-31T21:43:54.322Z,95.78
2022-10-31T21:46:30.223Z,95.69
2022-10-31T21:48:59.730Z,95.63
2022-10-31T21:51:29.317Z,95.84
2022-10-31T21:54:15.733Z,95.83
2022-10-31T21:56:43.692Z,95.93
2022-10-31T21:59:11.616Z,96.19
2022-10-31T22:01:39.547Z,96.36
2022-10-31T22:04:07.405Z,96.58
2022-10-31T22:06:35.584Z,96.58
2022-10-31T22:09:05.005Z,96.48
2022-10-31T22:11:32.965Z,96.64
2022-10-31T22:14:01.014Z,96.58
2022-10-31T22:16:29.701Z,96.42
2022-10-31T22:19:00.078Z,96.40
2022-10-31T22:21:28.636Z,96.48
2022-10-31T22:24:01.808Z,96.45
2022-10-31T22:26:32.880Z,96.21
2022-10-31T22:29:02.657Z,96.32
2022-10-31T22:31:31.433Z,96.38
2022-10-31T22:33:59.929Z,96.32
2022-10-31T22:36:29.434Z,96.36
2022-10-31T22:38:57.946Z,96.52
2022-10-31T22:41:28.778Z,96.51
2022-10-31T22:43:56.874Z,96.57
2022-10-31T22:46:26.650Z,96.68
2022-10-31T22:48:56.727Z,96.68
2022-10-31T22:51:26.617Z,96.60
2022-10-31T22:53:57.780Z,96.60
2022-10-31T22:56:27.725Z,96.43
2022-10-31T22:58:55.650Z,96.17
2022-10-31T23:01:26.095Z,96.15
2022-10-31T23:03:53.876Z,96.08
2022-10-31T23:06:24.163Z,96.25
2022-10-31T23:08:52.784Z,96.38
2022-10-31T23:11:24.346Z,96.22
2022-10-31T23:14:10.604Z,96.41
2022-10-31T23:16:41.094Z,96.77
2022-10-31T23:19:10.265Z,96.94
2022-10-31T23:21:59.429Z,96.93
2022-10-31T23:24:44.275Z,97.58
2022-10-31T23:27:23.155Z,97.09
2022-10-31T23:29:52.693Z,97.10
2022-10-31T23:32:30.764Z,97.03
2022-10-31T23:35:00.555Z,97.07
2022-10-31T23:37:30.346Z,97.08
2022-10-31T23:40:16.685Z,97.20
2022-10-31T23:42:45.231Z,97.06
2022-10-31T23:45:12.922Z,97.00
2022-10-31T23:47:43.298Z,97.19
2022-10-31T23:50:11.407Z,97.12
2022-10-31T23:52:39.131Z,97.62
2022-10-31T23:55:07.129Z,97.32
2022-10-31T23:57:34.587Z,97.22
